createdAt,value
2018-04-23T00:00:08.638Z,43.07
2018-04-23T00:02:36.889Z,43.45
2018-04-23T00:05:05.143Z,43.20
2018-04-23T00:07:33.376Z,43.47
2018-04-23T00:10:01.614Z,43.80
2018-04-23T00:12:29.862Z,43.97
2018-04-23T00:14:58.879Z,43.83
2018-04-23T00:17:27.114Z,44.12
2018-04-23T00:19:55.364Z,44.24
2018-04-23T00:22:23.605Z,44.42
2018-04-23T00:24:52.621Z,44.43
2018-04-23T00:27:20.863Z,44.55
2018-04-23T00:29:49.888Z,44.28
2018-04-23T00:32:18.121Z,44.54
2018-04-23T00:34:46.442Z,44.23
2018-04-23T00:37:14.677Z,44.33
2018-04-23T00:39:42.917Z,44.45
2018-04-23T00:42:11.185Z,44.43
2018-04-23T00:44:39.417Z,44.34
2018-04-23T00:47:08.417Z,44.70
2018-04-23T00:49:36.670Z,44.76
2018-04-23T00:52:04.910Z,44.74
2018-04-23T00:54:33.158Z,44.95
2018-04-23T00:57:01.402Z,44.99
2018-04-23T00:59:30.710Z,44.77
2018-04-23T01:01:59.710Z,44.71
2018-04-23T01:04:27.998Z,44.82
2018-04-23T01:06:56.244Z,44.83
2018-04-23T01:09:25.237Z,44.63
2018-04-23T01:11:54.257Z,44.90
2018-04-23T01:14:22.505Z,44.85
2018-04-23T01:16:51.501Z,44.93
2018-04-23T01:19:20.518Z,45.06
2018-04-23T01:21:48.749Z,44.90
2018-04-23T01:24:17.006Z,44.92
2018-04-23T01:26:45.251Z,45.04
2018-04-23T01:29:13.507Z,45.16
2018-04-23T01:31:42.801Z,45.16
2018-04-23T01:34:11.806Z,45.39
2018-04-23T01:36:40.080Z,45.09
2018-04-23T01:39:09.383Z,45.38
2018-04-23T01:41:38.374Z,45.64
2018-04-23T01:44:06.617Z,45.38
2018-04-23T01:46:34.976Z,45.78
2018-04-23T01:49:03.211Z,46.12
2018-04-23T01:51:31.448Z,45.80
2018-04-23T01:53:59.696Z,45.95
2018-04-23T01:56:27.946Z,46.13
2018-04-23T01:58:56.215Z,45.91
2018-04-23T02:01:24.457Z,46.30
2018-04-23T02:03:53.089Z,46.36
2018-04-23T02:06:21.321Z,46.41
2018-04-23T02:08:49.574Z,46.31
2018-04-23T02:11:17.814Z,46.50
2018-04-23T02:13:46.058Z,46.50
2018-04-23T02:16:15.084Z,46.75
2018-04-23T02:18:43.314Z,46.77
2018-04-23T02:21:11.545Z,46.71
2018-04-23T02:23:39.795Z,46.88
2018-04-23T02:26:08.042Z,46.69
2018-04-23T02:28:37.045Z,46.64
2018-04-23T02:31:05.278Z,47.24
2018-04-23T02:33:33.535Z,46.56
2018-04-23T02:36:01.797Z,46.63
2018-04-23T02:38:30.031Z,46.64
2018-04-23T02:40:58.271Z,46.47
2018-04-23T02:43:26.518Z,46.79
2018-04-23T02:45:54.750Z,46.80
2018-04-23T02:48:23.366Z,46.94
2018-04-23T02:50:51.605Z,47.06
2018-04-23T02:53:19.842Z,47.15
2018-04-23T02:55:48.086Z,47.30
2018-04-23T02:58:17.090Z,47.24
2018-04-23T03:00:45.366Z,47.61
2018-04-23T03:03:13.943Z,47.48
2018-04-23T03:05:42.194Z,47.73
2018-04-23T03:08:10.490Z,48.01
2018-04-23T03:10:39.497Z,48.09
2018-04-23T03:13:07.747Z,47.91
2018-04-23T03:15:36.761Z,48.03
2018-04-23T03:18:05.001Z,48.18
2018-04-23T03:20:33.241Z,47.91
2018-04-23T03:23:01.495Z,48.09
2018-04-23T03:25:29.726Z,48.14
2018-04-23T03:27:58.732Z,48.16
2018-04-23T03:30:27.742Z,47.87
2018-04-23T03:32:55.974Z,47.94
2018-04-23T03:35:24.226Z,48.01
2018-04-23T03:37:52.481Z,48.23
2018-04-23T03:40:20.762Z,48.41
2018-04-23T03:42:48.957Z,48.27
2018-04-23T03:45:17.194Z,48.60
2018-04-23T03:47:45.673Z,48.79
2018-04-23T03:50:13.910Z,48.58
2018-04-23T03:52:42.146Z,48.65
2018-04-23T03:55:10.397Z,48.49
2018-04-23T03:57:39.425Z,48.75
2018-04-23T04:00:07.630Z,48.86
2018-04-23T04:02:35.878Z,49.09
2018-04-23T04:05:04.114Z,49.08
2018-04-23T04:07:33.132Z,49.14
2018-04-23T04:10:01.362Z,49.17
2018-04-23T04:12:47.470Z,48.70
2018-04-23T04:15:34.230Z,48.82
2018-04-23T04:18:37.945Z,48.64
2018-04-23T04:21:06.196Z,48.65
2018-04-23T04:23:34.417Z,49.61
2018-04-23T04:26:02.675Z,49.36
2018-04-23T04:28:30.905Z,48.90
2018-04-23T04:30:59.227Z,49.04
2018-04-23T04:33:27.458Z,48.33
2018-04-23T04:35:55.721Z,48.34
2018-04-23T04:38:24.730Z,48.44
2018-04-23T04:40:52.968Z,48.14
2018-04-23T04:43:22.916Z,48.33
2018-04-23T04:45:51.494Z,48.60
2018-04-23T04:48:19.730Z,48.43
2018-04-23T04:50:49.474Z,48.54
2018-04-23T04:53:17.757Z,48.78
2018-04-23T04:55:46.754Z,48.56
2018-04-23T04:58:15.002Z,48.48
2018-04-23T05:00:44.018Z,48.44
2018-04-23T05:03:13.291Z,48.68
2018-04-23T05:05:42.294Z,48.70
2018-04-23T05:08:11.312Z,48.51
2018-04-23T05:10:40.364Z,48.62
2018-04-23T05:13:09.363Z,48.65
2018-04-23T05:15:39.117Z,48.77
2018-04-23T05:18:07.351Z,48.68
2018-04-23T05:20:37.093Z,48.77
2018-04-23T05:23:05.358Z,48.46
2018-04-23T05:25:34.647Z,48.45
2018-04-23T05:28:05.054Z,48.22
2018-04-23T05:30:34.150Z,48.33
2018-04-23T05:33:03.154Z,48.37
2018-04-23T05:35:32.903Z,47.99
2018-04-23T05:38:01.187Z,48.21
2018-04-23T05:40:29.434Z,48.14
2018-04-23T05:42:58.444Z,47.87
2018-04-23T05:45:26.696Z,48.02
2018-04-23T05:47:55.726Z,48.12
2018-04-23T05:50:23.963Z,48.21
2018-04-23T05:52:53.215Z,48.10
2018-04-23T05:55:21.450Z,47.59
2018-04-23T05:57:49.694Z,48.07
2018-04-23T06:00:18.713Z,48.21
2018-04-23T06:02:47.725Z,47.85
2018-04-23T06:05:16.005Z,47.33
2018-04-23T06:07:44.258Z,47.54
2018-04-23T06:10:13.566Z,47.70
2018-04-23T06:12:42.561Z,47.40
2018-04-23T06:15:10.807Z,47.09
2018-04-23T06:17:39.054Z,46.75
2018-04-23T06:20:07.290Z,46.71
2018-04-23T06:22:35.538Z,46.63
2018-04-23T06:25:04.556Z,45.85
2018-04-23T06:27:32.800Z,45.96
2018-04-23T06:30:01.042Z,45.71
2018-04-23T06:32:29.274Z,45.80
2018-04-23T06:34:57.538Z,45.91
2018-04-23T06:37:26.565Z,45.01
2018-04-23T06:39:54.787Z,44.63
2018-04-23T06:42:23.029Z,44.66
2018-04-23T06:44:51.291Z,44.69
2018-04-23T06:47:19.528Z,44.18
2018-04-23T06:49:48.526Z,44.60
2018-04-23T06:52:17.630Z,43.97
2018-04-23T06:54:46.637Z,43.58
2018-04-23T06:57:14.919Z,43.69
2018-04-23T06:59:43.154Z,43.48
2018-04-23T07:02:11.390Z,43.51
2018-04-23T07:04:39.655Z,43.49
2018-04-23T07:07:07.894Z,43.15
2018-04-23T07:09:36.898Z,42.71
2018-04-23T07:12:05.183Z,42.88
2018-04-23T07:14:33.757Z,42.51
2018-04-23T07:17:02.000Z,41.60
2018-04-23T07:19:30.278Z,41.32
2018-04-23T07:21:58.514Z,41.00
2018-04-23T07:24:26.760Z,40.71
2018-04-23T07:26:54.990Z,40.41
2018-04-23T07:29:23.672Z,40.16
2018-04-23T07:31:51.859Z,40.31
2018-04-23T07:34:20.909Z,41.25
2018-04-23T07:36:49.150Z,41.56
2018-04-23T07:39:18.173Z,41.93
2018-04-23T07:41:47.070Z,41.45
2018-04-23T07:44:15.306Z,40.50
2018-04-23T07:46:44.311Z,40.67
2018-04-23T07:49:13.313Z,40.31
2018-04-23T07:51:41.887Z,39.52
2018-04-23T07:54:10.960Z,40.26
2018-04-23T07:56:39.131Z,40.04
2018-04-23T07:59:07.378Z,39.92
2018-04-23T08:01:35.627Z,39.24
2018-04-23T08:04:03.871Z,39.22
2018-04-23T08:06:32.907Z,39.12
2018-04-23T08:09:01.126Z,39.20
2018-04-23T08:11:29.359Z,38.56
2018-04-23T08:13:57.621Z,38.30
2018-04-23T08:16:26.101Z,37.87
2018-04-23T08:18:54.337Z,36.98
2018-04-23T08:21:22.574Z,37.40
2018-04-23T08:23:51.776Z,37.90
2018-04-23T08:26:20.007Z,37.32
2018-04-23T08:28:48.595Z,36.99
2018-04-23T08:31:16.823Z,37.03
2018-04-23T08:33:45.064Z,36.14
2018-04-23T08:36:13.328Z,36.48
2018-04-23T08:38:41.570Z,36.44
2018-04-23T08:41:09.801Z,36.32
2018-04-23T08:43:38.067Z,35.66
2018-04-23T08:46:06.343Z,35.27
2018-04-23T08:48:34.594Z,35.48
2018-04-23T08:51:02.881Z,35.03
2018-04-23T08:53:31.354Z,34.14
2018-04-23T08:55:59.590Z,33.79
2018-04-23T08:58:27.831Z,34.24
2018-04-23T09:00:56.180Z,34.10
2018-04-23T09:03:25.191Z,34.03
2018-04-23T09:05:53.442Z,33.69
2018-04-23T09:08:23.439Z,33.21
2018-04-23T09:10:51.666Z,31.76
2018-04-23T09:13:20.026Z,32.03
2018-04-23T09:15:48.263Z,32.00
2018-04-23T09:18:16.505Z,32.42
2018-04-23T09:20:45.045Z,31.98
2018-04-23T09:23:14.048Z,32.74
2018-04-23T09:25:42.294Z,32.79
2018-04-23T09:28:10.551Z,31.98
2018-04-23T09:30:38.782Z,31.91
2018-04-23T09:33:07.035Z,32.25
2018-04-23T09:35:36.038Z,32.05
2018-04-23T09:38:05.047Z,31.71
2018-04-23T09:40:33.285Z,31.51
2018-04-23T09:43:01.530Z,31.55
2018-04-23T09:45:29.773Z,31.09
2018-04-23T09:47:58.025Z,31.14
2018-04-23T09:53:02.260Z,30.73
2018-04-23T09:55:31.267Z,31.96
2018-04-23T09:57:59.501Z,31.51
2018-04-23T10:00:31.723Z,31.94
2018-04-23T10:03:14.843Z,33.27
2018-04-23T10:05:43.094Z,29.90
2018-04-23T10:08:12.112Z,29.49
2018-04-23T10:10:40.338Z,28.69
2018-04-23T10:13:08.581Z,28.88
2018-04-23T10:15:36.858Z,29.75
2018-04-23T10:18:05.102Z,29.49
2018-04-23T10:20:33.389Z,31.20
2018-04-23T10:23:01.634Z,31.27
2018-04-23T10:25:30.653Z,32.55
2018-04-23T10:27:58.886Z,32.53
2018-04-23T10:30:27.265Z,32.55
2018-04-23T10:32:55.502Z,32.14
2018-04-23T10:35:23.741Z,31.96
2018-04-23T10:37:52.784Z,31.91
2018-04-23T10:40:21.139Z,31.54
2018-04-23T10:42:49.414Z,31.50
2018-04-23T10:45:17.662Z,30.81
2018-04-23T10:47:46.679Z,30.53
2018-04-23T10:50:14.931Z,30.97
2018-04-23T10:52:43.927Z,30.81
2018-04-23T10:55:13.129Z,32.12
2018-04-23T10:57:41.360Z,32.65
2018-04-23T11:00:09.603Z,31.34
2018-04-23T11:02:37.849Z,31.53
2018-04-23T11:05:06.857Z,31.00
2018-04-23T11:07:35.106Z,31.20
2018-04-23T11:10:04.122Z,30.65
2018-04-23T11:12:32.362Z,30.91
2018-04-23T11:15:00.624Z,30.90
2018-04-23T11:17:29.045Z,31.34
2018-04-23T11:19:57.299Z,31.28
2018-04-23T11:22:25.530Z,30.60
2018-04-23T11:24:53.801Z,31.04
2018-04-23T11:27:22.038Z,30.54
2018-04-23T11:29:51.041Z,29.13
2018-04-23T11:32:19.302Z,29.48
2018-04-23T11:34:48.318Z,29.67
2018-04-23T11:37:16.554Z,30.23
2018-04-23T11:39:44.810Z,30.52
2018-04-23T11:42:13.104Z,30.91
2018-04-23T11:44:41.338Z,31.39
2018-04-23T11:47:09.591Z,32.99
2018-04-23T11:49:37.846Z,31.99
2018-04-23T11:52:06.852Z,30.84
2018-04-23T11:54:35.870Z,30.56
2018-04-23T11:57:04.108Z,32.20
2018-04-23T11:59:33.145Z,31.84
2018-04-23T12:02:01.402Z,32.18
2018-04-23T12:04:29.639Z,32.75
2018-04-23T12:06:58.274Z,33.06
2018-04-23T12:09:26.510Z,34.55
2018-04-23T12:11:55.522Z,33.35
2018-04-23T12:14:23.774Z,33.96
2018-04-23T12:16:52.794Z,33.69
2018-04-23T12:19:21.054Z,34.01
2018-04-23T12:21:50.054Z,34.95
2018-04-23T12:24:18.303Z,35.22
2018-04-23T12:26:46.551Z,36.06
2018-04-23T12:29:14.800Z,34.53
2018-04-23T12:31:43.262Z,34.93
2018-04-23T12:34:12.266Z,35.00
2018-04-23T12:36:40.538Z,34.35
2018-04-23T12:39:08.785Z,33.63
2018-04-23T12:41:37.804Z,33.04
2018-04-23T12:44:06.278Z,33.61
2018-04-23T12:46:34.513Z,32.16
2018-04-23T12:49:02.751Z,32.82
2018-04-23T12:51:31.007Z,32.73
2018-04-23T12:53:59.250Z,32.05
2018-04-23T12:56:28.266Z,31.56
2018-04-23T12:58:57.275Z,30.89
2018-04-23T13:01:25.749Z,32.26
2018-04-23T13:03:53.993Z,32.13
2018-04-23T13:06:23.743Z,33.55
2018-04-23T13:08:52.014Z,34.03
2018-04-23T13:11:20.285Z,34.09
2018-04-23T13:13:49.290Z,33.57
2018-04-23T13:16:17.539Z,34.31
2018-04-23T13:18:45.876Z,34.37
2018-04-23T13:21:14.927Z,34.04
2018-04-23T13:23:43.173Z,34.33
2018-04-23T13:26:11.422Z,32.96
2018-04-23T13:28:39.654Z,33.49
2018-04-23T13:31:07.894Z,33.92
2018-04-23T13:33:36.924Z,32.63
2018-04-23T13:36:05.166Z,34.09
2018-04-23T13:38:33.422Z,35.28
2018-04-23T13:41:01.654Z,35.65
2018-04-23T13:43:29.906Z,37.13
2018-04-23T13:45:58.906Z,37.81
2018-04-23T13:48:27.928Z,38.95
2018-04-23T13:50:56.170Z,39.45
2018-04-23T13:53:25.174Z,39.83
2018-04-23T13:55:54.198Z,40.11
2018-04-23T13:58:22.446Z,40.42
2018-04-23T14:00:50.687Z,40.94
2018-04-23T14:03:18.921Z,41.65
2018-04-23T14:05:47.170Z,42.10
2018-04-23T14:08:15.414Z,42.21
2018-04-23T14:10:43.652Z,42.67
2018-04-23T14:13:11.894Z,42.66
2018-04-23T14:15:40.915Z,43.44
2018-04-23T14:18:09.141Z,43.88
2018-04-23T14:20:38.570Z,44.41
2018-04-23T14:23:06.820Z,44.36
2018-04-23T14:25:35.049Z,44.97
2018-04-23T14:28:03.318Z,44.82
2018-04-23T14:30:31.562Z,45.83
2018-04-23T14:35:35.352Z,45.46
2018-04-23T14:38:03.602Z,45.50
2018-04-23T14:40:31.838Z,45.42
2018-04-23T14:43:00.864Z,45.95
2018-04-23T14:45:29.110Z,45.64
2018-04-23T14:47:58.113Z,44.83
2018-04-23T14:50:26.372Z,43.45
2018-04-23T14:52:55.519Z,43.75
2018-04-23T14:55:23.766Z,44.62
2018-04-23T14:57:51.997Z,44.25
2018-04-23T15:00:20.302Z,44.44
2018-04-23T15:02:48.547Z,45.38
2018-04-23T15:05:16.793Z,45.54
2018-04-23T15:07:45.030Z,46.68
2018-04-23T15:10:13.274Z,45.98
2018-04-23T15:12:41.542Z,45.58
2018-04-23T15:15:10.058Z,46.22
2018-04-23T15:17:39.157Z,46.70
2018-04-23T15:20:08.167Z,46.13
2018-04-23T15:22:36.412Z,45.78
2018-04-23T15:25:05.410Z,45.57
2018-04-23T15:27:34.445Z,46.40
2018-04-23T15:30:02.696Z,46.90
2018-04-23T15:32:30.929Z,46.36
2018-04-23T15:34:59.162Z,46.44
2018-04-23T15:37:27.409Z,46.82
2018-04-23T15:39:56.411Z,46.86
2018-04-23T15:42:24.654Z,46.36
2018-04-23T15:44:53.670Z,47.10
2018-04-23T15:47:21.906Z,47.64
2018-04-23T15:49:50.159Z,47.88
2018-04-23T15:52:18.398Z,48.28
2018-04-23T15:54:47.505Z,48.35
2018-04-23T15:57:15.796Z,48.99
2018-04-23T15:59:44.022Z,48.69
2018-04-23T16:02:12.291Z,49.38
2018-04-23T16:04:40.526Z,49.51
2018-04-23T16:07:08.774Z,49.92
2018-04-23T16:09:37.018Z,49.86
2018-04-23T16:12:05.251Z,49.81
2018-04-23T16:14:33.510Z,50.05
2018-04-23T16:17:01.774Z,50.10
2018-04-23T16:19:30.804Z,50.33
2018-04-23T16:21:59.049Z,49.78
2018-04-23T16:24:27.297Z,49.48
2018-04-23T16:26:56.307Z,49.40
2018-04-23T16:29:25.426Z,49.16
2018-04-23T16:31:53.663Z,49.28
2018-04-23T16:34:21.893Z,49.09
2018-04-23T16:36:50.146Z,49.12
2018-04-23T16:39:18.393Z,49.29
2018-04-23T16:41:47.402Z,49.44
2018-04-23T16:44:15.662Z,49.41
2018-04-23T16:46:44.682Z,48.93
2018-04-23T16:49:12.922Z,48.52
2018-04-23T16:51:41.175Z,49.46
2018-04-23T16:54:09.409Z,49.72
2018-04-23T16:56:37.661Z,50.04
2018-04-23T16:59:06.665Z,50.18
2018-04-23T17:01:35.246Z,50.85
2018-04-23T17:04:03.486Z,50.95
2018-04-23T17:06:31.731Z,51.58
2018-04-23T17:08:59.980Z,51.83
2018-04-23T17:11:28.249Z,51.80
2018-04-23T17:13:56.521Z,51.53
2018-04-23T17:16:25.534Z,51.59
2018-04-23T17:18:54.548Z,51.99
2018-04-23T17:21:22.806Z,51.32
2018-04-23T17:23:51.186Z,52.11
2018-04-23T17:26:19.774Z,51.62
2018-04-23T17:28:48.043Z,51.34
2018-04-23T17:31:16.297Z,51.56
2018-04-23T17:33:45.996Z,51.96
2018-04-23T17:36:14.298Z,52.18
2018-04-23T17:38:43.568Z,52.52
2018-04-23T17:41:12.790Z,52.15
2018-04-23T17:43:42.429Z,52.33
2018-04-23T17:46:10.898Z,51.60
2018-04-23T17:48:39.465Z,51.23
2018-04-23T17:51:08.169Z,51.29
2018-04-23T17:53:37.041Z,50.81
2018-04-23T17:56:05.366Z,51.35
2018-04-23T17:58:33.680Z,51.67
2018-04-23T18:01:02.840Z,51.73
2018-04-23T18:03:31.073Z,52.11
2018-04-23T18:05:59.450Z,52.02
2018-04-23T18:08:27.877Z,51.88
2018-04-23T18:10:57.079Z,52.25
2018-04-23T18:13:25.522Z,52.14
2018-04-23T18:15:54.250Z,52.47
2018-04-23T18:18:23.430Z,52.72
2018-04-23T18:20:51.669Z,53.12
2018-04-23T18:23:19.923Z,52.93
2018-04-23T18:25:48.930Z,52.80
2018-04-23T18:28:17.176Z,52.78
2018-04-23T18:30:45.426Z,52.83
2018-04-23T18:33:13.676Z,52.85
2018-04-23T18:35:41.912Z,53.04
2018-04-23T18:38:10.924Z,53.29
2018-04-23T18:40:39.174Z,53.39
2018-04-23T18:43:08.210Z,53.36
2018-04-23T18:45:36.472Z,53.42
2018-04-23T18:48:05.477Z,53.74
2018-04-23T18:50:33.752Z,54.05
2018-04-23T18:53:01.978Z,53.88
2018-04-23T18:55:30.242Z,53.63
2018-04-23T18:57:58.482Z,53.47
2018-04-23T19:00:26.737Z,53.45
2018-04-23T19:02:54.987Z,53.59
2018-04-23T19:05:24.006Z,53.93
2018-04-23T19:07:52.262Z,54.21
2018-04-23T19:10:21.274Z,54.21
2018-04-23T19:12:49.549Z,54.27
2018-04-23T19:15:17.778Z,54.80
2018-04-23T19:17:46.042Z,54.65
2018-04-23T19:20:14.308Z,54.90
2018-04-23T19:22:42.534Z,55.20
2018-04-23T19:25:11.618Z,55.25
2018-04-23T19:27:40.113Z,55.79
2018-04-23T19:30:09.118Z,55.89
2018-04-23T19:32:37.349Z,55.83
2018-04-23T19:35:05.606Z,55.87
2018-04-23T19:37:33.850Z,56.63
2018-04-23T19:40:02.098Z,56.70
2018-04-23T19:42:30.494Z,56.94
2018-04-23T19:44:58.766Z,56.93
2018-04-23T19:47:27.770Z,56.77
2018-04-23T19:49:56.006Z,57.06
2018-04-23T19:52:24.618Z,57.04
2018-04-23T19:54:53.622Z,56.78
2018-04-23T19:57:21.863Z,57.36
2018-04-23T19:59:50.102Z,57.42
2018-04-23T20:02:18.367Z,57.43
2018-04-23T20:04:46.630Z,57.54
2018-04-23T20:07:14.866Z,57.45
2018-04-23T20:09:43.479Z,57.78
2018-04-23T20:12:12.482Z,58.03
2018-04-23T20:14:40.779Z,57.58
2018-04-23T20:17:09.045Z,57.17
2018-04-23T20:19:37.298Z,57.36
2018-04-23T20:22:05.538Z,57.14
2018-04-23T20:24:33.817Z,57.21
2018-04-23T20:27:02.062Z,57.26
2018-04-23T20:29:30.327Z,57.60
2018-04-23T20:31:58.579Z,57.75
2018-04-23T20:34:26.823Z,57.96
2018-04-23T20:36:55.431Z,58.37
2018-04-23T20:39:24.446Z,58.45
2018-04-23T20:41:52.864Z,58.93
2018-04-23T20:44:21.370Z,59.55
2018-04-23T20:46:49.543Z,59.58
2018-04-23T20:49:17.787Z,60.12
2018-04-23T20:51:46.037Z,60.40
2018-04-23T20:54:14.704Z,60.51
2018-04-23T20:56:42.915Z,60.86
2018-04-23T20:59:11.147Z,61.37
2018-04-23T21:01:40.158Z,61.50
2018-04-23T21:04:08.397Z,61.48
2018-04-23T21:06:37.462Z,61.05
2018-04-23T21:09:06.498Z,61.65
2018-04-23T21:11:35.509Z,61.23
2018-04-23T21:14:03.754Z,61.13
2018-04-23T21:16:32.892Z,60.45
2018-04-23T21:19:01.130Z,60.49
2018-04-23T21:21:30.130Z,60.14
2018-04-23T21:23:59.161Z,60.59
2018-04-23T21:26:27.409Z,60.91
2018-04-23T21:28:56.398Z,61.68
2018-04-23T21:31:24.649Z,61.94
2018-04-23T21:33:52.886Z,62.16
2018-04-23T21:36:21.127Z,62.38
2018-04-23T21:38:49.377Z,63.35
2018-04-23T21:41:18.388Z,63.39
2018-04-23T21:43:47.399Z,63.66
2018-04-23T21:46:15.636Z,63.86
2018-04-23T21:48:43.874Z,63.18
2018-04-23T21:51:12.208Z,63.83
2018-04-23T21:53:41.211Z,63.36
2018-04-23T21:56:09.502Z,64.17
2018-04-23T21:58:37.755Z,64.96
2018-04-23T22:01:06.747Z,65.56
2018-04-23T22:03:35.812Z,66.16
2018-04-23T22:06:04.022Z,67.23
2018-04-23T22:08:33.018Z,67.84
2018-04-23T22:11:01.272Z,67.97
2018-04-23T22:13:29.522Z,67.10
2018-04-23T22:15:57.763Z,67.71
2018-04-23T22:18:26.003Z,68.52
2018-04-23T22:20:55.009Z,68.52
2018-04-23T22:23:24.026Z,69.69
2018-04-23T22:25:52.259Z,69.88
2018-04-23T22:28:21.264Z,70.12
2018-04-23T22:30:50.275Z,69.85
2018-04-23T22:33:18.563Z,70.31
2018-04-23T22:35:46.802Z,70.57
2018-04-23T22:38:15.803Z,70.09
2018-04-23T22:40:44.809Z,70.30
2018-04-23T22:43:13.053Z,70.04
2018-04-23T22:45:41.286Z,69.80
2018-04-23T22:48:09.532Z,69.50
2018-04-23T22:50:37.774Z,69.65
2018-04-23T22:53:06.384Z,69.50
2018-04-23T22:55:35.483Z,69.30
2018-04-23T22:58:04.584Z,69.23
2018-04-23T23:00:32.834Z,69.84
2018-04-23T23:03:01.846Z,70.00
2018-04-23T23:05:30.856Z,70.33
2018-04-23T23:07:59.099Z,70.59
2018-04-23T23:10:28.110Z,70.64
2018-04-23T23:12:56.358Z,70.55
2018-04-23T23:15:25.362Z,70.04
2018-04-23T23:17:54.386Z,70.67
2018-04-23T23:20:22.622Z,70.75
2018-04-23T23:22:50.869Z,71.14
2018-04-23T23:25:19.100Z,71.42
2018-04-23T23:27:47.346Z,71.56
2018-04-23T23:30:15.590Z,71.48
2018-04-23T23:32:43.837Z,71.76
2018-04-23T23:35:12.074Z,71.79
2018-04-23T23:37:40.318Z,71.51
2018-04-23T23:40:08.560Z,71.44
2018-04-23T23:42:36.814Z,71.32
2018-04-23T23:45:05.826Z,71.57
2018-04-23T23:47:34.062Z,71.33
2018-04-23T23:50:02.302Z,71.48
2018-04-23T23:52:30.531Z,71.93
2018-04-23T23:54:59.841Z,72.30
2018-04-23T23:57:28.846Z,72.08
2018-04-23T23:59:57.083Z,71.73
